createdAt,value
2018-11-11T00:04:54.176Z,10.80
2018-11-11T00:07:23.142Z,10.80
2018-11-11T00:09:51.715Z,10.80
2018-11-11T00:12:24.201Z,10.80
2018-11-11T00:15:00.914Z,10.80
2018-11-11T00:17:31.433Z,10.80
2018-11-11T00:20:05.806Z,10.80
2018-11-11T00:22:35.129Z,10.80
2018-11-11T00:25:08.268Z,10.80
2018-11-11T00:30:20.779Z,10.70
2018-11-11T00:38:23.779Z,10.70
2018-11-11T00:40:58.376Z,10.70
2018-11-11T00:43:32.007Z,10.70
2018-11-11T00:46:03.806Z,10.70
2018-11-11T00:48:43.311Z,10.70
2018-11-11T00:51:24.894Z,10.70
2018-11-11T00:56:32.621Z,10.70
2018-11-11T00:59:14.085Z,10.70
2018-11-11T01:01:48.096Z,10.70
2018-11-11T01:04:21.578Z,10.70
2018-11-11T01:06:59.151Z,10.70
2018-11-11T01:09:47.725Z,10.60
2018-11-11T01:14:58.122Z,10.60
2018-11-11T01:17:28.708Z,10.60
2018-11-11T01:19:59.920Z,10.60
2018-11-11T01:22:30.689Z,10.60
2018-11-11T01:25:00.085Z,10.60
2018-11-11T01:27:29.667Z,10.60
2018-11-11T01:30:00.242Z,10.60
2018-11-11T01:32:29.735Z,10.60
2018-11-11T01:34:58.554Z,10.60
2018-11-11T01:37:39.487Z,10.60
2018-11-11T01:40:09.646Z,10.60
2018-11-11T01:42:41.153Z,10.60
2018-11-11T01:45:18.691Z,10.60
2018-11-11T01:47:48.723Z,10.60
2018-11-11T01:50:22.982Z,10.60
2018-11-11T01:52:53.756Z,10.60
2018-11-11T01:55:23.627Z,10.60
2018-11-11T01:57:52.998Z,10.60
2018-11-11T02:00:22.263Z,10.60
2018-11-11T02:02:52.632Z,10.60
2018-11-11T02:05:31.044Z,10.60
2018-11-11T02:08:00.507Z,10.60
2018-11-11T02:10:33.567Z,10.60
2018-11-11T02:13:07.626Z,10.60
2018-11-11T02:15:40.284Z,10.60
2018-11-11T02:18:09.785Z,10.60
2018-11-11T02:20:38.574Z,10.60
2018-11-11T02:23:07.899Z,10.60
2018-11-11T02:25:43.084Z,10.60
2018-11-11T02:28:20.634Z,10.60
2018-11-11T02:30:49.983Z,10.60
2018-11-11T02:33:18.901Z,10.50
2018-11-11T02:35:49.435Z,10.50
2018-11-11T02:38:22.803Z,10.60
2018-11-11T02:40:53.956Z,10.60
2018-11-11T02:43:24.995Z,10.50
2018-11-11T02:45:56.998Z,10.60
2018-11-11T02:48:34.152Z,10.50
2018-11-11T02:51:03.727Z,10.50
2018-11-11T02:53:33.987Z,10.50
2018-11-11T02:56:03.328Z,10.50
2018-11-11T02:58:32.621Z,10.50
2018-11-11T03:01:01.782Z,10.50
2018-11-11T03:03:30.400Z,10.50
2018-11-11T03:05:58.971Z,10.50
2018-11-11T03:08:29.267Z,10.50
2018-11-11T03:10:59.496Z,10.50
2018-11-11T03:13:34.007Z,10.50
2018-11-11T03:16:05.108Z,10.50
2018-11-11T03:18:35.228Z,10.50
2018-11-11T03:21:05.945Z,10.50
2018-11-11T03:23:35.139Z,10.50
2018-11-11T03:26:05.023Z,10.40
2018-11-11T03:28:34.787Z,10.40
2018-11-11T03:31:07.637Z,10.40
2018-11-11T03:33:36.176Z,10.40
2018-11-11T03:36:10.042Z,10.40
2018-11-11T03:38:59.050Z,10.40
2018-11-11T03:41:31.565Z,10.40
2018-11-11T03:44:07.503Z,10.40
2018-11-11T03:46:36.841Z,10.40
2018-11-11T03:49:09.647Z,10.40
2018-11-11T03:51:40.852Z,10.40
2018-11-11T03:54:15.934Z,10.40
2018-11-11T03:56:46.444Z,10.40
2018-11-11T03:59:20.777Z,10.40
2018-11-11T04:02:02.468Z,10.40
2018-11-11T04:04:32.068Z,10.40
2018-11-11T04:07:03.338Z,10.40
2018-11-11T04:09:33.909Z,10.40
2018-11-11T04:12:03.757Z,10.40
2018-11-11T04:14:33.498Z,10.40
2018-11-11T04:17:03.759Z,10.30
2018-11-11T04:19:37.415Z,10.30
2018-11-11T04:22:11.598Z,10.30
2018-11-11T04:24:49.600Z,10.30
2018-11-11T04:27:19.951Z,10.30
2018-11-11T04:29:52.865Z,10.30
2018-11-11T04:32:27.162Z,10.30
2018-11-11T04:37:32.853Z,10.30
2018-11-11T04:40:01.941Z,10.30
2018-11-11T04:42:32.123Z,10.30
2018-11-11T04:45:01.472Z,10.30
2018-11-11T04:47:30.328Z,10.30
2018-11-11T04:49:59.523Z,10.20
2018-11-11T04:52:29.800Z,10.20
2018-11-11T04:55:02.492Z,10.20
2018-11-11T04:57:32.959Z,10.20
2018-11-11T05:00:18.011Z,10.20
2018-11-11T05:02:48.588Z,10.10
2018-11-11T05:05:18.223Z,10.10
2018-11-11T05:07:46.986Z,10.10
2018-11-11T05:13:01.363Z,10.10
2018-11-11T05:15:30.605Z,10.00
2018-11-11T05:18:05.081Z,10.00
2018-11-11T05:20:36.255Z,10.00
2018-11-11T05:23:06.906Z,10.00
2018-11-11T05:25:39.504Z,10.00
2018-11-11T05:28:08.726Z,10.00
2018-11-11T05:30:44.105Z,10.00
2018-11-11T05:33:13.931Z,10.00
2018-11-11T05:35:44.476Z,10.00
2018-11-11T05:38:15.170Z,10.00
2018-11-11T05:40:47.145Z,10.00
2018-11-11T05:43:16.709Z,10.00
2018-11-11T05:45:51.693Z,9.90
2018-11-11T05:48:20.976Z,10.00
2018-11-11T05:50:49.817Z,9.90
2018-11-11T05:53:19.128Z,9.90
2018-11-11T05:55:47.900Z,9.90
2018-11-11T05:58:18.539Z,9.90
2018-11-11T06:00:51.568Z,9.90
2018-11-11T06:03:24.469Z,9.90
2018-11-11T06:05:53.357Z,9.90
2018-11-11T06:08:23.036Z,9.80
2018-11-11T06:10:53.139Z,9.80
2018-11-11T06:13:22.145Z,9.80
2018-11-11T06:15:53.611Z,9.80
2018-11-11T06:18:22.496Z,9.80
2018-11-11T06:20:52.854Z,9.80
2018-11-11T06:23:21.287Z,9.80
2018-11-11T06:25:50.247Z,9.80
2018-11-11T06:28:19.362Z,9.80
2018-11-11T06:30:49.078Z,9.80
2018-11-11T06:35:52.720Z,9.80
2018-11-11T06:38:22.833Z,9.80
2018-11-11T06:40:53.431Z,9.80
2018-11-11T06:43:22.281Z,9.80
2018-11-11T06:45:51.515Z,9.80
2018-11-11T06:48:20.896Z,9.80
2018-11-11T06:50:57.623Z,9.80
2018-11-11T06:53:28.287Z,9.70
2018-11-11T06:55:58.170Z,9.70
2018-11-11T06:58:34.356Z,9.70
2018-11-11T07:01:04.762Z,9.70
2018-11-11T07:03:47.758Z,9.70
2018-11-11T07:06:18.679Z,9.70
2018-11-11T07:08:52.370Z,9.70
2018-11-11T07:11:21.935Z,9.70
2018-11-11T07:13:50.672Z,9.70
2018-11-11T07:16:24.547Z,9.70
2018-11-11T07:18:55.348Z,9.70
2018-11-11T07:21:24.405Z,9.70
2018-11-11T07:23:55.927Z,9.70
2018-11-11T07:26:28.251Z,9.70
2018-11-11T07:31:34.672Z,9.70
2018-11-11T07:34:12.586Z,9.70
2018-11-11T07:36:43.069Z,9.70
2018-11-11T07:39:26.734Z,9.70
2018-11-11T07:41:56.929Z,9.60
2018-11-11T07:44:25.970Z,9.70
2018-11-11T07:46:56.370Z,9.70
2018-11-11T07:52:06.793Z,9.70
2018-11-11T07:54:35.630Z,9.70
2018-11-11T07:57:09.519Z,9.70
2018-11-11T07:59:44.230Z,9.70
2018-11-11T08:02:15.503Z,9.80
2018-11-11T08:04:46.860Z,9.80
2018-11-11T08:07:20.020Z,9.80
2018-11-11T08:09:51.962Z,9.80
2018-11-11T08:12:26.270Z,9.80
2018-11-11T08:14:57.887Z,9.80
2018-11-11T08:17:27.232Z,9.80
2018-11-11T08:19:57.106Z,9.80
2018-11-11T08:22:27.174Z,9.80
2018-11-11T08:24:57.358Z,9.80
2018-11-11T08:27:34.716Z,9.80
2018-11-11T08:33:07.402Z,9.80
2018-11-11T08:35:46.124Z,9.80
2018-11-11T08:38:16.401Z,9.80
2018-11-11T08:41:00.930Z,9.80
2018-11-11T08:46:18.834Z,9.80
2018-11-11T08:49:13.361Z,9.80
2018-11-11T08:51:46.620Z,9.80
2018-11-11T08:54:19.100Z,9.80
2018-11-11T08:56:48.451Z,9.80
2018-11-11T08:59:18.315Z,9.80
2018-11-11T09:01:55.769Z,9.80
2018-11-11T09:07:05.511Z,9.80
2018-11-11T09:09:36.519Z,9.80
2018-11-11T09:12:09.510Z,9.80
2018-11-11T09:14:40.245Z,9.80
2018-11-11T09:17:13.285Z,9.80
2018-11-11T09:19:51.937Z,9.80
2018-11-11T09:22:30.917Z,9.80
2018-11-11T09:25:09.065Z,9.80
2018-11-11T09:30:24.828Z,9.80
2018-11-11T09:32:54.323Z,9.80
2018-11-11T09:35:27.731Z,9.80
2018-11-11T09:38:08.579Z,9.80
2018-11-11T09:43:17.997Z,9.80
2018-11-11T09:48:45.613Z,9.80
2018-11-11T09:51:26.607Z,9.90
2018-11-11T09:58:10.988Z,9.90
2018-11-11T10:06:25.716Z,9.90
2018-11-11T10:11:57.975Z,10.00
2018-11-11T10:14:36.775Z,10.00
2018-11-11T10:24:01.277Z,10.00
2018-11-11T10:29:37.342Z,10.00
2018-11-11T10:32:21.227Z,10.10
2018-11-11T10:34:54.215Z,10.10
2018-11-11T10:37:30.254Z,10.10
2018-11-11T10:40:09.195Z,10.10
2018-11-11T10:42:53.569Z,10.10
2018-11-11T10:48:25.244Z,10.20
2018-11-11T10:51:02.155Z,10.20
2018-11-11T10:53:47.317Z,10.20
2018-11-11T10:59:04.907Z,10.30
2018-11-11T11:01:39.343Z,10.30
2018-11-11T11:04:08.584Z,10.40
2018-11-11T11:09:45.763Z,10.50
2018-11-11T11:12:14.572Z,10.50
2018-11-11T11:14:43.363Z,10.50
2018-11-11T11:17:13.444Z,10.50
2018-11-11T11:19:51.363Z,10.60
2018-11-11T11:22:21.252Z,10.70
2018-11-11T11:24:51.522Z,10.70
2018-11-11T11:27:20.856Z,10.80
2018-11-11T11:29:49.420Z,10.80
2018-11-11T11:32:20.503Z,10.80
2018-11-11T11:34:49.199Z,10.90
2018-11-11T11:37:18.360Z,10.90
2018-11-11T11:40:15.538Z,10.90
2018-11-11T11:42:44.061Z,10.90
2018-11-11T11:45:30.020Z,10.90
2018-11-11T11:47:59.389Z,11.00
2018-11-11T11:50:54.554Z,10.90
2018-11-11T11:53:23.649Z,11.00
2018-11-11T11:55:58.051Z,11.00
2018-11-11T12:01:06.606Z,11.10
2018-11-11T12:03:35.411Z,11.10
2018-11-11T12:06:04.972Z,11.20
2018-11-11T12:08:39.181Z,11.30
2018-11-11T12:11:14.225Z,11.30
2018-11-11T12:13:44.014Z,11.30
2018-11-11T12:16:14.981Z,11.30
2018-11-11T12:18:44.520Z,11.30
2018-11-11T12:21:23.382Z,11.30
2018-11-11T12:23:53.398Z,11.40
2018-11-11T12:26:29.150Z,11.40
2018-11-11T12:29:03.975Z,11.50
2018-11-11T12:34:26.466Z,11.50
2018-11-11T12:40:07.197Z,11.50
2018-11-11T12:42:42.258Z,11.60
2018-11-11T12:45:12.492Z,11.60
2018-11-11T12:48:01.096Z,11.70
2018-11-11T12:50:44.595Z,11.70
2018-11-11T12:58:53.212Z,11.70
2018-11-11T13:12:28.194Z,11.80
2018-11-11T13:15:00.873Z,11.80
2018-11-11T13:17:34.687Z,11.80
2018-11-11T13:23:49.867Z,11.80
2018-11-11T13:28:53.367Z,11.70
2018-11-11T13:31:25.065Z,11.60
2018-11-11T13:33:58.795Z,11.50
2018-11-11T13:39:04.899Z,11.40
2018-11-11T13:41:33.608Z,11.30
2018-11-11T13:44:01.975Z,11.30
2018-11-11T13:46:32.040Z,11.30
2018-11-11T13:49:04.777Z,11.30
2018-11-11T13:51:34.408Z,11.30
2018-11-11T13:54:04.694Z,11.30
2018-11-11T13:56:33.600Z,11.30
2018-11-11T13:59:03.082Z,11.30
2018-11-11T14:01:31.763Z,11.20
2018-11-11T14:04:04.000Z,11.10
2018-11-11T14:06:33.090Z,11.10
2018-11-11T14:09:02.015Z,11.00
2018-11-11T14:11:33.868Z,11.00
2018-11-11T14:17:03.748Z,10.90
2018-11-11T14:19:35.388Z,10.90
2018-11-11T14:22:06.107Z,10.80
2018-11-11T14:24:37.575Z,10.70
2018-11-11T14:35:45.447Z,10.70
2018-11-11T14:46:51.205Z,10.60
2018-11-11T14:52:04.537Z,10.50
2018-11-11T14:54:39.972Z,10.50
2018-11-11T15:03:15.763Z,10.50
2018-11-11T15:11:30.355Z,10.50
2018-11-11T15:14:11.571Z,10.50
2018-11-11T15:16:49.737Z,10.50
2018-11-11T15:19:31.778Z,10.50
2018-11-11T15:22:06.711Z,10.50
2018-11-11T15:24:41.742Z,10.50
2018-11-11T15:27:20.587Z,10.50
2018-11-11T15:30:04.165Z,10.50
2018-11-11T15:35:17.812Z,10.40
2018-11-11T15:37:54.516Z,10.40
2018-11-11T15:40:32.686Z,10.40
2018-11-11T15:43:08.313Z,10.40
2018-11-11T15:45:44.415Z,10.40
2018-11-11T15:48:14.300Z,10.40
2018-11-11T15:51:14.908Z,10.40
2018-11-11T16:18:31.790Z,10.40
2018-11-11T16:24:12.197Z,10.50
2018-11-11T16:26:53.306Z,10.50
2018-11-11T16:29:37.492Z,10.50
2018-11-11T16:32:26.217Z,10.50
2018-11-11T16:35:05.943Z,10.50
2018-11-11T16:40:49.445Z,10.50
2018-11-11T16:43:29.089Z,10.50
2018-11-11T16:46:09.014Z,10.50
2018-11-11T16:52:04.171Z,10.50
2018-11-11T16:57:24.669Z,10.60
2018-11-11T17:02:53.519Z,10.70
2018-11-11T17:08:29.048Z,10.80
2018-11-11T17:17:29.627Z,10.90
2018-11-11T17:20:12.377Z,11.00
2018-11-11T17:26:15.988Z,11.00
2018-11-11T17:31:44.474Z,11.00
2018-11-11T17:34:22.990Z,11.00
2018-11-11T17:36:54.884Z,11.00
2018-11-11T17:43:43.246Z,11.10
2018-11-11T17:46:24.183Z,11.10
2018-11-11T17:51:38.460Z,11.00
2018-11-11T17:54:09.912Z,11.00
2018-11-11T17:56:42.843Z,11.00
2018-11-11T18:01:52.527Z,11.00
2018-11-11T18:07:13.179Z,11.00
2018-11-11T18:09:44.389Z,11.00
2018-11-11T18:12:23.616Z,11.00
2018-11-11T18:20:47.513Z,11.00
2018-11-11T18:23:23.349Z,11.00
2018-11-11T18:26:00.506Z,11.00
2018-11-11T18:31:20.591Z,10.90
2018-11-11T18:36:52.920Z,10.90
2018-11-11T18:42:31.437Z,10.90
2018-11-11T18:51:09.607Z,11.10
2018-11-11T18:53:49.119Z,11.10
2018-11-11T19:02:44.212Z,11.10
2018-11-11T19:08:42.020Z,11.20
2018-11-11T19:11:29.330Z,11.20
2018-11-11T19:22:59.139Z,11.20
2018-11-11T19:28:19.670Z,11.20
2018-11-11T19:36:26.500Z,11.20
2018-11-11T19:38:59.092Z,11.20
2018-11-11T19:41:38.961Z,11.30
2018-11-11T19:44:10.219Z,11.30
2018-11-11T19:46:43.271Z,11.30
2018-11-11T19:49:16.047Z,11.30
2018-11-11T19:51:48.608Z,11.20
2018-11-11T19:54:18.599Z,11.20
2018-11-11T19:56:48.822Z,11.20
2018-11-11T19:59:37.001Z,11.20
2018-11-11T20:10:16.823Z,11.20
2018-11-11T20:12:50.141Z,11.20
2018-11-11T20:15:34.516Z,11.20
2018-11-11T20:18:06.467Z,11.10
2018-11-11T20:20:48.548Z,11.10
2018-11-11T20:23:19.147Z,11.10
2018-11-11T20:25:58.273Z,11.10
2018-11-11T20:28:29.471Z,11.10
2018-11-11T20:31:15.601Z,11.10
2018-11-11T20:33:48.026Z,11.10
2018-11-11T20:36:23.808Z,11.10
2018-11-11T20:38:54.927Z,11.10
2018-11-11T20:41:26.382Z,11.10
2018-11-11T20:43:58.915Z,11.10
2018-11-11T20:46:29.199Z,11.10
2018-11-11T20:49:00.828Z,11.00
2018-11-11T20:51:33.659Z,11.00
2018-11-11T20:54:02.132Z,11.00
2018-11-11T20:56:30.516Z,11.00
2018-11-11T20:58:59.194Z,11.00
2018-11-11T21:01:27.834Z,11.00
2018-11-11T21:04:02.124Z,11.00
2018-11-11T21:06:31.601Z,11.10
2018-11-11T21:09:12.118Z,11.10
2018-11-11T21:11:41.098Z,11.10
2018-11-11T21:14:09.818Z,11.10
2018-11-11T21:16:38.165Z,11.10
2018-11-11T21:19:20.896Z,11.10
2018-11-11T21:21:49.271Z,11.10
2018-11-11T21:24:18.106Z,11.10
2018-11-11T21:26:46.745Z,11.00
2018-11-11T21:29:16.455Z,11.00
2018-11-11T21:34:21.873Z,10.90
2018-11-11T21:36:51.494Z,10.90
2018-11-11T21:39:20.623Z,10.90
2018-11-11T21:41:49.611Z,10.90
2018-11-11T21:44:17.930Z,10.90
2018-11-11T21:46:46.522Z,10.90
2018-11-11T21:49:15.930Z,10.90
2018-11-11T21:51:45.372Z,10.90
2018-11-11T21:54:14.766Z,10.90
2018-11-11T21:56:45.046Z,11.00
2018-11-11T21:59:18.570Z,11.00
2018-11-11T22:01:46.878Z,11.00
2018-11-11T22:04:15.881Z,11.00
2018-11-11T22:06:44.393Z,11.00
2018-11-11T22:09:13.101Z,11.00
2018-11-11T22:11:41.828Z,11.00
2018-11-11T22:14:10.236Z,11.00
2018-11-11T22:16:38.763Z,11.00
2018-11-11T22:19:07.556Z,11.10
2018-11-11T22:21:35.911Z,11.10
2018-11-11T22:24:05.210Z,11.10
2018-11-11T22:26:34.024Z,11.10
2018-11-11T22:29:03.279Z,11.10
2018-11-11T22:31:31.670Z,11.10
2018-11-11T22:34:00.126Z,11.10
2018-11-11T22:36:28.458Z,11.10
2018-11-11T22:38:57.691Z,11.10
2018-11-11T22:41:26.115Z,11.20
2018-11-11T22:44:00.311Z,11.10
2018-11-11T22:46:28.856Z,11.10
2018-11-11T22:49:00.297Z,11.10
2018-11-11T22:51:28.638Z,11.00
2018-11-11T22:53:57.003Z,11.00
2018-11-11T22:56:25.387Z,11.00
2018-11-11T22:58:53.691Z,10.90
2018-11-11T23:01:22.577Z,10.90
2018-11-11T23:03:51.322Z,10.90
2018-11-11T23:06:19.567Z,10.90
2018-11-11T23:08:48.378Z,10.80
2018-11-11T23:11:17.251Z,10.80
2018-11-11T23:13:45.542Z,10.80
2018-11-11T23:16:13.911Z,10.80
2018-11-11T23:18:42.140Z,10.80
2018-11-11T23:21:11.519Z,10.80
2018-11-11T23:23:39.816Z,10.70
2018-11-11T23:26:08.283Z,10.80
2018-11-11T23:28:36.643Z,10.80
2018-11-11T23:31:05.352Z,10.80
2018-11-11T23:33:33.811Z,10.70
2018-11-11T23:36:02.526Z,10.80
2018-11-11T23:38:30.867Z,10.70
2018-11-11T23:41:00.101Z,10.80
2018-11-11T23:43:28.943Z,10.80
2018-11-11T23:45:57.243Z,10.80
2018-11-11T23:48:25.562Z,10.70
2018-11-11T23:51:04.184Z,10.70
2018-11-11T23:53:32.980Z,10.70
2018-11-11T23:56:01.915Z,10.70
2018-11-11T23:58:30.180Z,10.70
